AGROMETEOROLOŠKI PORTAL

vinorodna pokrajina

Temelj dobrega kmetovanja

Izpis lokacij s podatki meritev in opazovanj za Osrednja Slovenija

Vir: ARSO
Osrednja Slovenija
Lokacija Nadmorska višina Lega Višina meritve senzorja Datum in čas meritve Dosežena min. temperatura RH Veter (m/s) Temp. rosišča Temp. mokrega termometra
Borovnica 288 m 2 m 1.2.2023 08:30 -8,5 95,4 0,6 -9,1 -8,7
Brdo pri Lukovici 368 m J 2 m 1.2.2023 06:30 -4,9 95,1 -5,6 -5,1
Češnjevek (Cerklje) 405 m S 2 m 1.2.2023 08:00 -8,6 89,0 2,6 -10,1 -9,0
Gabrska Gora 487 m 2 m 1.2.2023 05:00 -0,3 60,4 -7,0 -2,5
Jablje 302 m S 20 cm 1.2.2023 06:00 -6,4 97,4 1,2 -6,7 -6,5
Jablje 302 m S 2 m 1.2.2023 07:30 -5,5 97,1 1,1 -5,9 -5,6
Kamnik 377 m JV 2 m 1.2.2023 06:30 -5,3 95,3 -5,9 -5,5
Kovor 514 m 2 m 1.2.2023 06:30 -3,5 82,5 -6,0 -4,3
Kovor 514 m 20 cm 1.2.2023 06:30 -5,5 82,5 -8,0 -6,3
Ljubljana KIS 297 m S 2 m 1.2.2023 07:30 -3,8 88,8 -5,4 -4,3
Podbrezje 456 m JV 2 m 1.2.2023 08:00 -5,6 94,5 -6,3 -5,8
Resje 503 m 2 m 1.2.2023 08:00 -5,7 91,1 -6,9 -6,1
Šentjakob 279 m 20 cm 1.2.2023 07:00 -6,2 98,7 -6,4 -6,3
Šentjakob 279 m 2 m 1.2.2023 07:00 -5,8 98,7 -6,0 -5,9
Vnajnarje 667 m S 2 m 1.2.2023 08:00 -0,6 61,0 -7,2 -2,7
Znojile pri Krki 331 m JV 2 m 1.2.2023 07:30 -6,5 94,5 -7,2 -6,7
Žabnica (Dorfarje) 372 m 2 m 1.2.2023 08:00 -9,1 97,6 0,6 -9,4 -9,2
BOHINJSKA ČEŠNJICA - ARSO 596 m 2 m 1.2.2023 08:00 -8,0 90,0 -9,4 -8,4
BORŠT PRI GORENJI VASI ARSO 532 m 2 m 1.2.2023 07:30 -4,2 87,0 1,1 -6,0 -4,8
BRNIK - LETALIŠČE - ARSO 364 m 2 m 1.2.2023 04:30 -8,8 90,0 2,8 -10,1 -9,2
Lesce 515 m 2 m 1.2.2023 08:00 -6,5 84,0 2,2 -8,8 -7,2
LITIJA ARSO 263 m 2 m 1.2.2023 07:30 -4,8 92,0 -5,9 -5,2
Ljubljana - Bežigrad ARSO 299 m 2 m 1.2.2023 07:00 -3,6 87,0 1,4 -5,5 -4,2
LOGATEC - ARSO 486 m 2 m 1.2.2023 07:30 -9,9 91,0 -11,1 -10,2
NOVA VAS - BLOKE - ARSO 718 m 2 m 1.2.2023 08:00 -17,2 84,0 -19,3 -17,5
VRHNIKA ARSO 367 m 2 m 1.2.2023 07:30 -3,8 87,0 1,9 -5,6 -4,4
Jeprca DRSI 360 m 2 m 1.2.2023 07:00 -7,1 92,0 0,7 -8,2 -7,4
Kranj - Delavski most DRSI 380 m 2 m 1.2.2023 09:00 -2,8 80,0 1,6 -5,8 -3,8
Krtina 1 DRSI 308 m 2 m 1.2.2023 05:00 -5,0 99,0 0,8 -5,1 -5,0
Moste pri Komendi DRSI 331 m 2 m 1.2.2023 05:00 -6,0 100,0 1,1 -6,0 -6,0
Podvin DRSI 489 m 2 m 1.2.2023 06:30 -6,0 100,0 0,0 -6,0 -6,0
Vir pri Domžalah DRSI 308 m 2 m 1.2.2023 06:30 -5,0 100,0 0,3 -5,0 -5,0
Vrhnika AC priključek DRSI 293 m 2 m 1.2.2023 06:30 -7,0 93,0 0,0 -7,9 -7,3
Postaje, katerih podatke prikazujemo na portalu, so postaje proizvajalca Adcon Telemetry.

IZJAVA O OMEJITVI ODGOVORNOSTI: Uprava Republike Slovenije za varno hrano, veterinarstvo in varstvo rastlin (Uprava) skupaj z Opazovalno napovedovalno službo zdravstvenega varstva rastlin skrbi za nemoteno delovanje in vzdrževanje meteoroloških podatkov iz mreže agrometeoroloških postaj (Adcon Telemety). Agrometeorološki podatki, ki so objavljeni na tej strani, so zgolj informativne narave. Za morebitne vsebinske napake, do katerih lahko pride zaradi tehničnih težav pri vzdrževanju mreže, napak merilne opreme ali drugih nepredvidljivih vzrokov, napak pri vnosu, posodabljanja vsebin, Uprava ne prevzema odgovornosti, kakor tudi ne zaradi nepravilnega delovanja in/ali nedostopnosti vsebine teh spletnih strani. Uprava tudi ne prevzema odgovornosti za kakršnokoli neposredno ali posredno izgubo oziroma škodo, materialno in nematerialno, ki bi nastala zaradi dostopa, uporabe ali odločitve, sprejete na podlagi informacij, objavljenih na teh spletnih straneh, kakor tudi ne zaradi nepravilnega delovanja in/ali nedostopnosti vsebine teh spletnih strani. Uprava si pridržuje pravico do spremembe oziroma umika vsebine, deloma ali v celoti, brez predhodne najave. Vsak poskus nepooblaščenega spreminjanja ali poškodovanja spletnih strani, kot tudi nepooblaščen dostop do informacij mimo spletnih strani in do drugih vsebin, je kaznivo dejanje. Pri uporabi vsebin, objavljenih na portalu, je potrebno navesti vir podatkov (UVHVVR, Agrometeorološki portal Slovenije) in upoštevati avtorske pravice.